AirNav   Everest Fuels
 
 1483 users online  

7N4 Honey Acres Airport
Clinton, Michigan, USA

GOING TO CLINTON?


FAA INFORMATION EFFECTIVE 18 JUNE 2020

Location

FAA Identifier: 7N4
Lat/Long: 42-04-39.9000N 083-59-09.6850W
42-04.665000N 083-59.161417W
42.0777500,-83.9860236
(estimated)
Elevation: 825 ft. / 251 m (estimated)
Variation: 04W (1985)
From city: 1 mile W of CLINTON, MI
Time zone: UTC -4 (UTC -5 during Standard Time)
Zip code: 49236

Airport Operations

Airport use: Open to the public
Activation date: 07/1990
Control tower: no
ARTCC: CLEVELAND CENTER
FSS: LANSING FLIGHT SERVICE STATION
NOTAMs facility: LAN (NOTAM-D service available)
Attendance: IREG
Wind indicator: yes
Segmented circle: no

Airport Communications

CTAF: 122.9
WX ASOS at ADG (13 nm S): 118.375 (517-265-9089)
WX ASOS at ARB (14 nm NE): 134.55 (734-668-7173)

Nearby radio navigation aids

VOR radial/distance  VOR name  Freq  Var
CRLr277/23.6CARLETON VOR/DME115.7003W
SVMr224/26.4SALEM VORTAC114.3003W
DXOr260/28.7DETROIT VOR/DME113.4006W
LFDr093/34.7LITCHFIELD VOR/DME111.2005W

 
NDB name  Hdg/Dist  Freq  Var  ID
TECUMSEH307/5.223906WTCU - -.-. ..-
ADRIAN024/13.127806WADG .- -.. --.
GROSSE ILE275/37.141907WRYS .-. -.-- ...

Airport Services

Parking: tiedowns

Runway Information

Runway 18/36

Dimensions: 3800 x 90 ft. / 1158 x 27 m
Surface: turf, in good condition
Runway edge markings: RWY 36 THR & DSPLCD THR MKD WITH 3 FT YELLOW CONES.
RUNWAY 18  RUNWAY 36
Latitude: 42-04.977667N42-04.352333N
Longitude: 083-59.176000W083-59.146833W
Elevation: 825.0 ft.817.0 ft.
Traffic pattern: leftleft
Runway heading: 182 magnetic, 178 true002 magnetic, 358 true
Displaced threshold: 600 ft.600 ft.
Obstructions: 40 ft. trees, 106 ft. left of centerline32 ft. bldg, lighted, 129 ft. from runway, 55 ft. left of centerline, 4:1 slope to clear
APCH RATIO 8:1 AT DSPLCD THR OVER 80 FT TREE, 714 FT DSTC, 125 L.

Airport Ownership and Management from official FAA records

Ownership: Privately-owned
Owner: RAYMOND L. KUSSMAUL
12447 MATTHEWS HWY
CLINTON, MI 49236
Phone 517-902-3270
Manager: RAYMOND L. KUSSMAUL
12447 MATTHEWS HWY
CLINTON, MI 49236
Phone 517-902-3270

Airport Operational Statistics

Aircraft based on the field: 4
Single engine airplanes: 4
    
Aircraft operations: avg 38/month *
50% transient general aviation
50% local general aviation
* for 12-month period ending 31 December 2017

Additional Remarks

BUILDING & HNGR IN PRIMARY SFC.
RWY 36, +18 FT PLINE 430 FT FROM THR MKD WITH ORANGE BALLS.
RWY SOFT DURG SPRING THAW AND AFT HEAVY RAINS.
FOR CD CTC DETROIT APCH AT 800-499-8181.
DEER AND BIRDS ON & INVOF RWY.

Instrument Procedures

There are no published instrument procedures at 7N4.

Some nearby airports with instrument procedures:

KADG - Lenawee County Airport (13 nm S)
KARB - Ann Arbor Municipal Airport (14 nm NE)
KYIP - Willow Run Airport (22 nm NE)
KJXN - Jackson County Airport-Reynolds Field (24 nm NW)
KDUH - Toledo Suburban Airport (25 nm SE)
 
Loc | Ops | Rwys | IFR | FBO | Links
Com | Nav | Svcs | Stats | Notes
Area around 7N4 (Honey Acres Airport)
 
Road maps at: MapQuest Bing Google
 
Aerial photo
WARNING: Photo may not be current or correct
Aerial photo of 7N4 (Honey Acres Airport)
Credit: M. Coleman - LocalHangar.com

Do you have a better or more recent aerial photo of Honey Acres Airport that you would like to share? If so, please send us your photo.

 
Sectional chart

 
Airport distance calculator
Flying to Honey Acres Airport? Find the distance to fly.

From to 7N4

Sunrise and sunset
Times for 09-Jul-2020
 Local
(UTC-4)
 Zulu
(UTC)
Morning civil twilight05:3709:37
Sunrise06:1010:10
Sunset21:1201:12
Evening civil twilight21:4601:46

Current date and time
Zulu (UTC)  09-Jul-2020 18:51:12
Local (UTC-4)  09-Jul-2020 14:51:12
 
METAR
KADG 
13nm S 
091753Z AUTO 22006G14KT 10SM FEW050 33/18 A2992 RMK AO2 SLP127 T03330183 10333 20233 58009 TSNO
KARB 
14nm NE 
734-668-7173
091753Z 21006KT 10SM SCT046 32/21 A2992 RMK AO2 SLP125 T03170211 10317 20233 58006
KYIP 
22nm NE 
091753Z 16008KT 10SM FEW042 34/21 A2993 RMK AO2 SLP126 T03440211 10344 20244 58007
KJXN 
24nm NW 
091756Z 17007KT 10SM FEW050 33/19 A2991 RMK AO2 SLP120 T03330189 10333 20239 58011
KDUH 
26nm SE 
091835Z AUTO 00000KT 10SM SCT049 BKN070 BKN080 32/20 A2990 RMK AO2 T03230203
TAF
KYIP 
22nm NE 
091722Z 0918/1018 20007KT P6SM BKN060 FM092100 16008KT P6SM BKN060 BKN250 TEMPO 0921/0924 VRB15G25KT 5SM TSRA BKN050CB FM100100 VRB03KT P6SM BKN120 OVC250 FM101200 16005KT P6SM OVC100
KJXN 
24nm NW 
091748Z 0918/1018 13005KT P6SM SKC FM092200 23008KT P6SM VCTS BKN050CB TEMPO 0922/0924 2SM TSRA BKN040CB FM100100 24005KT P6SM BKN060
NOTAMs
Click for the latest NOTAMs
NOTAMs are issued by the DoD/FAA and will open in a separate window not controlled by AirNav.

 

 
 

Where to Eat: Catering, Restaurants, Food shops

  
 Business Name 
 
 Contact 
 
 Services / Description 
 
Distance
 
Comments
  
Race Track Inn 517-456-7768
no information available

If you are affiliated with Race Track Inn and would like to show here your services, contact info, web link, logo, and more, click here
0.2 miles  
   write
McDonald's 517-456-8700
no information available

If you are affiliated with McDonald's and would like to show here your services, contact info, web link, logo, and more, click here
0.4 miles  
   write
 

Would you like to see your business listed on this page?

 If your business provides an interesting product or service to pilots, flight crews, aircraft, or users of the Honey Acres Airport, you should consider listing it here.  To start the listing process, click on the button below
 
Add a business
 

Other Pages about Honey Acres Airport

Page from the Michigan Airport Directory (PDF)
 
Update a link
 
Copyright © AirNav, LLC. All rights reserved. Privacy Policy  Contact